Las horas y fechas están en horario UTC
Sumar 1 hora en el horario de Invierno y 2 horas en el de Verano

Informes METAR cercanos

 

LEZL - Sevilla (civ/Mil, Spain
Distance from station: NNE 24km
Actualización: 23/01/2020 14:11
Precipitación, Muy nuboso
Precipitación, Muy nuboso
 Viento del ONO
Viento: ONO 19 km/h
Temperatura: 11°C
Rocío: 10°C
Humedad: 94%
Barómetro: 1016 hPa
Resumen: Precipitación
Clouds: Muy nuboso
Visibility: 10 km
Cloud details: Few Clouds 244 m
Parcialmente nuboso 610 m
Muy nuboso 1067 m
2020/01/23 13:11 LEZL 231311Z 29010KT 9999 RA FEW008 SCT020 BKN035 11/10 Q1016 NOSIG
LEMO - Moron (sp-Usafb), Spain
Distance from station: E 38km
Actualización: 23/01/2020 14:00
Muy nuboso
Muy nuboso
 Viento del S
Viento: S 24 km/h
Temperatura: 15°C
Rocío: 8°C
Humedad: 63%
Barómetro: 1016 hPa
Clouds: Muy nuboso
Visibility: 10 km
Cloud details: Few Clouds 610 m
Few Clouds 1067 m
Muy nuboso 1524 m
2020/01/23 13:00 LEMO 231300Z 18013KT 9999 FEW020TCU FEW035 BKN050 15/08 Q1016 NOSIG
LEJR - Jerez (civ/Mil), Spain
Distance from station: S 53km
Actualización: 23/01/2020 14:00
Parcialmente nuboso
Parcialmente nuboso
 Viento del S
Viento: S 24 km/h
Temperatura: 14°C
Rocío: 11°C
Humedad: 82%
Barómetro: 1016 hPa
Clouds: Parcialmente nuboso
Visibility: 10 km
Cloud details: Muy nuboso 610 m
Parcialmente nuboso 1981 m
2020/01/23 13:00 LEJR 231300Z 17013KT 140V200 9999 BKN020 SCT065 14/11 Q1016
 
LERT - Rota Naval Stati, Spain
Distance from station: SSO 71km
Actualización: 23/01/2020 14:00
Precipitación, Muy nuboso
Precipitación, Muy nuboso
 Viento del S
Viento: S 20 km/h
Temperatura: 13°C
Rocío: 12°C
Humedad: 94%
Barómetro: 1015 hPa
Resumen: Precipitación
Clouds: Muy nuboso
Visibility: 9 km
Cloud details: Few Clouds 457 m
Few Clouds 610 m
Muy nuboso 1676 m
2020/01/23 13:00 LERT 231300Z 18011KT 150V220 9000 RA FEW015 FEW020CB BKN055 13/12 Q1015 TEMPO 4000 SHRA
LEBA - Cordoba Airport, Spain
Distance from station: ENE 128km
Actualización: 23/01/2020 14:00
Lluvia débil, Parcialmente nuboso
Lluvia débil, Parcialmente nuboso
 Viento del ENE
Viento: ENE 9 km/h
Temperatura: 11°C
Rocío: 8°C
Humedad: 82%
Barómetro: 1017 hPa
Resumen: Lluvia débil
Clouds: Parcialmente nuboso
Visibility: 10 km
Cloud details: Few Clouds 914 m
Parcialmente nuboso 1372 m
2020/01/23 13:00 LEBA 231300Z 07005KT 030V110 9999 -RA FEW030 SCT045 11/08 Q1017
LXGB - Gibraltar (civ/M, Gibraltar
Distance from station: SSE 137km
Actualización: 23/01/2020 13:50
Muy nuboso
Muy nuboso
 Viento del ENE
Viento: ENE 15 km/h
Temperatura: 15°C
Rocío: 10°C
Humedad: 72%
Barómetro: 1017 hPa
Clouds: Muy nuboso
Visibility: 10 km
Cloud details: Muy nuboso 1524 m
Muy nuboso 5486 m
2020/01/23 12:50 LXGB 231250Z 07008KT 9999 BKN050 BKN180 15/10 Q1017 NOSIG RMK BLU BLU
 
LEMG - Malaga (civ/Mil), Spain
Distance from station: ESE 150km
Actualización: 23/01/2020 14:00
Muy nuboso
Muy nuboso
 Viento del ONO
Viento: ONO 11 km/h
Temperatura: 11°C
Rocío: 9°C
Humedad: 88%
Barómetro: 1018 hPa
Clouds: Muy nuboso
Visibility: 7 km
Cloud details: Few Clouds 488 m
Muy nuboso 762 m
Muy nuboso 1219 m
2020/01/23 13:00 LEMG 231300Z 30006KT 7000 FEW016 BKN025CB BKN040 11/09 Q1018 NOSIG
GMTT - Tangier/Boukhalf, Morocco
Distance from station: S 169km
Actualización: 23/01/2020 14:00
Muy nuboso
Muy nuboso
 Viento del SSE
Viento: SSE 19 km/h
Temperatura: 15°C
Rocío: 8°C
Humedad: 63%
Barómetro: 1016 hPa
Clouds: Muy nuboso
Visibility: 8 km
Cloud details: Parcialmente nuboso 945 m
Muy nuboso 1890 m
2020/01/23 13:00 GMTT 231300Z 16010KT 8000 SCT031 BKN062 15/08 Q1016 NOSIG
LPFR - Faro, Portugal
Distance from station: O 172km
Actualización: 23/01/2020 14:00
Parcialmente nuboso
Parcialmente nuboso
 Viento del E
Viento: E 9 km/h
Temperatura: 15°C
Rocío: 10°C
Humedad: 72%
Barómetro: 1014 hPa
Clouds: Parcialmente nuboso
Visibility: 10 km
Cloud details: Few Clouds 457 m
Parcialmente nuboso 671 m
2020/01/23 13:00 LPFR 231300Z 10005KT 060V140 9999 FEW015 SCT022 15/10 Q1014
 
LPBJ - Beja (por/Ger-Af, Portugal
Distance from station: ONO 192km
Actualización: 23/01/2020 14:00
Parcialmente nuboso
Parcialmente nuboso
 Viento del SE
Viento: SE 22 km/h
Temperatura: 13°C
Rocío: 9°C
Humedad: 77%
Barómetro: 1014 hPa
Clouds: Parcialmente nuboso
Visibility: 10 km
Cloud details: Few Clouds 396 m
Few Clouds 549 m
Parcialmente nuboso 671 m
2020/01/23 13:00 LPBJ 231300Z 14012KT 9999 FEW013 FEW018TCU SCT022 13/09 Q1014
LEBZ - Talavera Ab/Bada, Spain
Distance from station: NNO 194km
Actualización: 23/01/2020 14:00
Drizzle, Muy nuboso
Drizzle, Muy nuboso
 Viento del ESE
Viento: ESE 20 km/h
Temperatura: 12°C
Rocío: 9°C
Humedad: 82%
Barómetro: 1015 hPa
Resumen: Drizzle
Clouds: Muy nuboso
Visibility: 10 km
Cloud details: Parcialmente nuboso 762 m
Muy nuboso 1067 m
2020/01/23 13:00 LEBZ 231300Z 11011KT 070V140 9999 DZ SCT025 BKN035 12/09 Q1015
LEMD - Madrid/Barajas, Spain
Distance from station: NE 415km
Actualización: 23/01/2020 14:00
Few Clouds
Few Clouds
 Viento del ESE
Viento: ESE 6 km/h
Temperatura: 10°C
Rocío: 4°C
Humedad: 67%
Barómetro: 1018 hPa
Clouds: Few Clouds
Visibility: 10 km
Cloud details: Few Clouds 762 m
2020/01/23 13:00 LEMD 231300Z 12003KT 9999 FEW025 10/04 Q1018 NOSIG